sensor_id;sensor_type;location;lat;lon;timestamp;temperature;humidity
42019;DHT22;27703;51.980;5.848;2022-07-04T00:00:45;17.80;91.40
42019;DHT22;27703;51.980;5.848;2022-07-04T00:03:11;17.70;91.40
42019;DHT22;27703;51.980;5.848;2022-07-04T00:05:36;17.70;91.50
42019;DHT22;27703;51.980;5.848;2022-07-04T00:08:02;17.70;91.50
42019;DHT22;27703;51.980;5.848;2022-07-04T00:10:28;17.70;91.50
42019;DHT22;27703;51.980;5.848;2022-07-04T00:12:54;17.60;91.50
42019;DHT22;27703;51.980;5.848;2022-07-04T00:15:20;17.60;91.60
42019;DHT22;27703;51.980;5.848;2022-07-04T00:17:45;17.60;91.60
42019;DHT22;27703;51.980;5.848;2022-07-04T00:20:11;17.60;91.70
42019;DHT22;27703;51.980;5.848;2022-07-04T00:22:37;17.50;91.70
42019;DHT22;27703;51.980;5.848;2022-07-04T00:25:04;17.40;91.90
42019;DHT22;27703;51.980;5.848;2022-07-04T00:27:30;17.40;91.90
42019;DHT22;27703;51.980;5.848;2022-07-04T00:29:56;17.40;91.90
42019;DHT22;27703;51.980;5.848;2022-07-04T00:32:21;17.40;91.90
42019;DHT22;27703;51.980;5.848;2022-07-04T00:34:47;17.40;91.90
42019;DHT22;27703;51.980;5.848;2022-07-04T00:37:13;17.30;91.90
42019;DHT22;27703;51.980;5.848;2022-07-04T00:39:39;17.30;92.00
42019;DHT22;27703;51.980;5.848;2022-07-04T00:42:05;17.20;91.90
42019;DHT22;27703;51.980;5.848;2022-07-04T00:44:31;17.20;92.00
42019;DHT22;27703;51.980;5.848;2022-07-04T00:46:57;17.10;92.00
42019;DHT22;27703;51.980;5.848;2022-07-04T00:49:23;17.10;92.10
42019;DHT22;27703;51.980;5.848;2022-07-04T00:51:49;17.00;92.10
42019;DHT22;27703;51.980;5.848;2022-07-04T00:54:15;17.00;92.20
42019;DHT22;27703;51.980;5.848;2022-07-04T00:56:44;16.90;92.20
42019;DHT22;27703;51.980;5.848;2022-07-04T00:59:11;16.80;92.20
42019;DHT22;27703;51.980;5.848;2022-07-04T01:01:37;16.80;92.30
42019;DHT22;27703;51.980;5.848;2022-07-04T01:04:04;16.70;92.30
42019;DHT22;27703;51.980;5.848;2022-07-04T01:06:30;16.60;92.40
42019;DHT22;27703;51.980;5.848;2022-07-04T01:08:56;16.60;92.40
42019;DHT22;27703;51.980;5.848;2022-07-04T01:11:22;16.50;92.50
42019;DHT22;27703;51.980;5.848;2022-07-04T01:13:48;16.60;92.50
42019;DHT22;27703;51.980;5.848;2022-07-04T01:16:14;16.50;92.50
42019;DHT22;27703;51.980;5.848;2022-07-04T01:18:40;16.50;92.50
42019;DHT22;27703;51.980;5.848;2022-07-04T01:21:06;16.50;92.60
42019;DHT22;27703;51.980;5.848;2022-07-04T01:23:36;16.50;92.60
42019;DHT22;27703;51.980;5.848;2022-07-04T01:26:02;16.40;92.60
42019;DHT22;27703;51.980;5.848;2022-07-04T01:28:28;16.40;92.80
42019;DHT22;27703;51.980;5.848;2022-07-04T01:30:53;16.40;92.80
42019;DHT22;27703;51.980;5.848;2022-07-04T01:33:19;16.40;92.80
42019;DHT22;27703;51.980;5.848;2022-07-04T01:35:45;16.40;92.70
42019;DHT22;27703;51.980;5.848;2022-07-04T01:38:10;16.50;92.70
42019;DHT22;27703;51.980;5.848;2022-07-04T01:40:36;16.50;92.70
42019;DHT22;27703;51.980;5.848;2022-07-04T01:43:01;16.40;92.70
42019;DHT22;27703;51.980;5.848;2022-07-04T01:45:27;16.40;92.70
42019;DHT22;27703;51.980;5.848;2022-07-04T01:47:53;16.40;92.80
42019;DHT22;27703;51.980;5.848;2022-07-04T01:50:19;16.40;92.80
42019;DHT22;27703;51.980;5.848;2022-07-04T01:52:45;16.40;92.70
42019;DHT22;27703;51.980;5.848;2022-07-04T01:55:11;16.40;92.80
42019;DHT22;27703;51.980;5.848;2022-07-04T01:57:37;16.30;92.80
42019;DHT22;27703;51.980;5.848;2022-07-04T02:00:08;16.30;92.90
42019;DHT22;27703;51.980;5.848;2022-07-04T02:02:53;16.30;93.00
42019;DHT22;27703;51.980;5.848;2022-07-04T02:05:18;16.20;93.00
42019;DHT22;27703;51.980;5.848;2022-07-04T02:07:44;16.20;93.00
42019;DHT22;27703;51.980;5.848;2022-07-04T02:10:10;16.10;93.00
42019;DHT22;27703;51.980;5.848;2022-07-04T02:12:36;16.10;93.10
42019;DHT22;27703;51.980;5.848;2022-07-04T02:15:20;16.00;93.10
42019;DHT22;27703;51.980;5.848;2022-07-04T02:17:46;16.00;93.30
42019;DHT22;27703;51.980;5.848;2022-07-04T02:20:13;15.90;93.30
42019;DHT22;27703;51.980;5.848;2022-07-04T02:22:38;16.00;93.30
42019;DHT22;27703;51.980;5.848;2022-07-04T02:25:04;16.00;93.40
42019;DHT22;27703;51.980;5.848;2022-07-04T02:27:30;16.00;93.40
42019;DHT22;27703;51.980;5.848;2022-07-04T02:29:55;16.00;93.40
42019;DHT22;27703;51.980;5.848;2022-07-04T02:32:21;15.90;93.40
42019;DHT22;27703;51.980;5.848;2022-07-04T02:34:46;15.90;93.50
42019;DHT22;27703;51.980;5.848;2022-07-04T02:37:12;15.90;93.60
42019;DHT22;27703;51.980;5.848;2022-07-04T02:39:38;15.90;93.60
42019;DHT22;27703;51.980;5.848;2022-07-04T02:42:04;15.90;93.60
42019;DHT22;27703;51.980;5.848;2022-07-04T02:44:29;15.90;93.60
42019;DHT22;27703;51.980;5.848;2022-07-04T02:46:56;15.90;93.70
42019;DHT22;27703;51.980;5.848;2022-07-04T02:49:22;16.00;93.70
42019;DHT22;27703;51.980;5.848;2022-07-04T02:51:48;16.00;93.60
42019;DHT22;27703;51.980;5.848;2022-07-04T02:54:13;16.00;93.70
42019;DHT22;27703;51.980;5.848;2022-07-04T02:56:39;15.90;93.70
42019;DHT22;27703;51.980;5.848;2022-07-04T02:59:04;15.90;93.70
42019;DHT22;27703;51.980;5.848;2022-07-04T03:01:30;15.90;93.80
42019;DHT22;27703;51.980;5.848;2022-07-04T03:03:56;15.80;93.80
42019;DHT22;27703;51.980;5.848;2022-07-04T03:06:21;15.80;93.80
42019;DHT22;27703;51.980;5.848;2022-07-04T03:08:47;15.80;94.10
42019;DHT22;27703;51.980;5.848;2022-07-04T03:11:12;15.80;94.00
42019;DHT22;27703;51.980;5.848;2022-07-04T03:13:40;15.90;94.00
42019;DHT22;27703;51.980;5.848;2022-07-04T03:16:05;15.90;93.90
42019;DHT22;27703;51.980;5.848;2022-07-04T03:18:31;15.90;93.80
42019;DHT22;27703;51.980;5.848;2022-07-04T03:20:57;16.00;93.80
42019;DHT22;27703;51.980;5.848;2022-07-04T03:23:22;16.00;93.80
42019;DHT22;27703;51.980;5.848;2022-07-04T03:25:48;16.00;93.80
42019;DHT22;27703;51.980;5.848;2022-07-04T03:28:13;16.00;93.80
42019;DHT22;27703;51.980;5.848;2022-07-04T03:30:39;15.90;93.80
42019;DHT22;27703;51.980;5.848;2022-07-04T03:33:04;15.90;93.80
42019;DHT22;27703;51.980;5.848;2022-07-04T03:35:30;15.80;93.90
42019;DHT22;27703;51.980;5.848;2022-07-04T03:37:56;15.70;93.90
42019;DHT22;27703;51.980;5.848;2022-07-04T03:40:22;15.60;93.90
42019;DHT22;27703;51.980;5.848;2022-07-04T03:42:48;15.60;94.00
42019;DHT22;27703;51.980;5.848;2022-07-04T03:45:14;15.60;94.10
42019;DHT22;27703;51.980;5.848;2022-07-04T03:47:39;15.50;94.20
42019;DHT22;27703;51.980;5.848;2022-07-04T03:50:05;15.50;94.30
42019;DHT22;27703;51.980;5.848;2022-07-04T03:52:31;15.50;94.40
42019;DHT22;27703;51.980;5.848;2022-07-04T03:54:57;15.60;94.50
42019;DHT22;27703;51.980;5.848;2022-07-04T03:57:23;15.70;94.50
42019;DHT22;27703;51.980;5.848;2022-07-04T03:59:48;15.70;94.50
42019;DHT22;27703;51.980;5.848;2022-07-04T04:02:14;15.70;94.50
42019;DHT22;27703;51.980;5.848;2022-07-04T04:04:40;15.70;94.70
42019;DHT22;27703;51.980;5.848;2022-07-04T04:07:24;15.70;94.90
42019;DHT22;27703;51.980;5.848;2022-07-04T04:09:50;15.70;94.90
42019;DHT22;27703;51.980;5.848;2022-07-04T04:12:15;15.70;94.90
42019;DHT22;27703;51.980;5.848;2022-07-04T04:14:41;15.80;95.10
42019;DHT22;27703;51.980;5.848;2022-07-04T04:17:07;15.90;94.90
42019;DHT22;27703;51.980;5.848;2022-07-04T04:19:33;15.80;95.00
42019;DHT22;27703;51.980;5.848;2022-07-04T04:21:58;15.70;95.20
42019;DHT22;27703;51.980;5.848;2022-07-04T04:24:24;15.70;95.40
42019;DHT22;27703;51.980;5.848;2022-07-04T04:26:50;15.70;95.50
42019;DHT22;27703;51.980;5.848;2022-07-04T04:29:15;15.70;95.60
42019;DHT22;27703;51.980;5.848;2022-07-04T04:31:41;15.70;95.60
42019;DHT22;27703;51.980;5.848;2022-07-04T04:34:06;15.70;95.70
42019;DHT22;27703;51.980;5.848;2022-07-04T04:36:32;15.60;95.70
42019;DHT22;27703;51.980;5.848;2022-07-04T04:38:58;15.50;95.80
42019;DHT22;27703;51.980;5.848;2022-07-04T04:41:23;15.50;95.90
42019;DHT22;27703;51.980;5.848;2022-07-04T04:43:49;15.50;96.00
42019;DHT22;27703;51.980;5.848;2022-07-04T04:46:15;15.50;96.00
42019;DHT22;27703;51.980;5.848;2022-07-04T04:48:40;15.50;96.00
42019;DHT22;27703;51.980;5.848;2022-07-04T04:51:06;15.60;96.00
42019;DHT22;27703;51.980;5.848;2022-07-04T04:53:31;15.60;96.00
42019;DHT22;27703;51.980;5.848;2022-07-04T04:55:57;15.60;96.10
42019;DHT22;27703;51.980;5.848;2022-07-04T04:58:23;15.60;96.00
42019;DHT22;27703;51.980;5.848;2022-07-04T05:00:49;15.60;96.00
42019;DHT22;27703;51.980;5.848;2022-07-04T05:03:15;15.70;96.10
42019;DHT22;27703;51.980;5.848;2022-07-04T05:05:42;15.80;96.00
42019;DHT22;27703;51.980;5.848;2022-07-04T05:08:07;15.80;96.10
42019;DHT22;27703;51.980;5.848;2022-07-04T05:10:33;15.80;96.10
42019;DHT22;27703;51.980;5.848;2022-07-04T05:12:58;15.90;96.10
42019;DHT22;27703;51.980;5.848;2022-07-04T05:15:24;16.00;96.00
42019;DHT22;27703;51.980;5.848;2022-07-04T05:17:50;16.00;96.00
42019;DHT22;27703;51.980;5.848;2022-07-04T05:20:16;16.00;96.00
42019;DHT22;27703;51.980;5.848;2022-07-04T05:22:41;16.00;96.00
42019;DHT22;27703;51.980;5.848;2022-07-04T05:25:07;16.00;96.00
42019;DHT22;27703;51.980;5.848;2022-07-04T05:27:33;16.00;96.00
42019;DHT22;27703;51.980;5.848;2022-07-04T05:29:59;16.00;96.10
42019;DHT22;27703;51.980;5.848;2022-07-04T05:32:25;15.90;96.20
42019;DHT22;27703;51.980;5.848;2022-07-04T05:34:51;15.90;96.30
42019;DHT22;27703;51.980;5.848;2022-07-04T05:37:17;15.80;96.40
42019;DHT22;27703;51.980;5.848;2022-07-04T05:39:43;15.80;96.50
42019;DHT22;27703;51.980;5.848;2022-07-04T05:42:08;15.80;96.60
42019;DHT22;27703;51.980;5.848;2022-07-04T05:44:34;15.90;96.60
42019;DHT22;27703;51.980;5.848;2022-07-04T05:47:00;15.90;96.60
42019;DHT22;27703;51.980;5.848;2022-07-04T05:49:25;15.90;96.70
42019;DHT22;27703;51.980;5.848;2022-07-04T05:51:51;16.00;96.60
42019;DHT22;27703;51.980;5.848;2022-07-04T05:54:16;16.10;96.50
42019;DHT22;27703;51.980;5.848;2022-07-04T05:56:43;16.20;96.50
42019;DHT22;27703;51.980;5.848;2022-07-04T05:59:09;16.30;96.60
42019;DHT22;27703;51.980;5.848;2022-07-04T06:01:35;16.40;97.00
42019;DHT22;27703;51.980;5.848;2022-07-04T06:04:02;16.30;97.30
42019;DHT22;27703;51.980;5.848;2022-07-04T06:06:28;16.40;97.30
42019;DHT22;27703;51.980;5.848;2022-07-04T06:08:53;16.40;97.40
42019;DHT22;27703;51.980;5.848;2022-07-04T06:11:19;16.40;97.30
42019;DHT22;27703;51.980;5.848;2022-07-04T06:13:44;16.50;97.40
42019;DHT22;27703;51.980;5.848;2022-07-04T06:16:10;16.50;97.60
42019;DHT22;27703;51.980;5.848;2022-07-04T06:18:35;16.50;97.50
42019;DHT22;27703;51.980;5.848;2022-07-04T06:21:01;16.50;97.50
42019;DHT22;27703;51.980;5.848;2022-07-04T06:23:27;16.60;97.40
42019;DHT22;27703;51.980;5.848;2022-07-04T06:25:52;16.60;97.30
42019;DHT22;27703;51.980;5.848;2022-07-04T06:28:18;16.70;97.30
42019;DHT22;27703;51.980;5.848;2022-07-04T06:30:43;16.80;97.30
42019;DHT22;27703;51.980;5.848;2022-07-04T06:33:09;16.80;97.20
42019;DHT22;27703;51.980;5.848;2022-07-04T06:35:34;16.90;97.10
42019;DHT22;27703;51.980;5.848;2022-07-04T06:38:23;16.90;97.10
42019;DHT22;27703;51.980;5.848;2022-07-04T06:40:57;17.00;97.10
42019;DHT22;27703;51.980;5.848;2022-07-04T06:43:23;17.10;96.90
42019;DHT22;27703;51.980;5.848;2022-07-04T06:45:49;17.20;96.90
42019;DHT22;27703;51.980;5.848;2022-07-04T06:48:15;17.30;96.80
42019;DHT22;27703;51.980;5.848;2022-07-04T06:50:40;17.30;96.80
42019;DHT22;27703;51.980;5.848;2022-07-04T06:53:08;17.40;96.80
42019;DHT22;27703;51.980;5.848;2022-07-04T06:55:38;17.40;96.70
42019;DHT22;27703;51.980;5.848;2022-07-04T06:58:04;17.40;96.70
42019;DHT22;27703;51.980;5.848;2022-07-04T07:00:30;17.30;96.70
42019;DHT22;27703;51.980;5.848;2022-07-04T07:02:57;17.30;96.80
42019;DHT22;27703;51.980;5.848;2022-07-04T07:05:24;17.30;96.80
42019;DHT22;27703;51.980;5.848;2022-07-04T07:07:50;17.40;96.70
42019;DHT22;27703;51.980;5.848;2022-07-04T07:10:15;17.60;96.60
42019;DHT22;27703;51.980;5.848;2022-07-04T07:12:41;17.60;96.50
42019;DHT22;27703;51.980;5.848;2022-07-04T07:15:07;17.70;96.50
42019;DHT22;27703;51.980;5.848;2022-07-04T07:17:32;17.70;96.40
42019;DHT22;27703;51.980;5.848;2022-07-04T07:19:58;17.80;96.50
42019;DHT22;27703;51.980;5.848;2022-07-04T07:22:23;17.80;96.50
42019;DHT22;27703;51.980;5.848;2022-07-04T07:24:49;18.00;96.50
42019;DHT22;27703;51.980;5.848;2022-07-04T07:27:15;18.00;96.30
42019;DHT22;27703;51.980;5.848;2022-07-04T07:29:40;18.10;96.20
42019;DHT22;27703;51.980;5.848;2022-07-04T07:32:06;18.20;96.20
42019;DHT22;27703;51.980;5.848;2022-07-04T07:34:33;18.20;96.20
42019;DHT22;27703;51.980;5.848;2022-07-04T07:36:59;18.30;96.20
42019;DHT22;27703;51.980;5.848;2022-07-04T07:39:24;18.30;96.20
42019;DHT22;27703;51.980;5.848;2022-07-04T07:41:50;18.40;96.20
42019;DHT22;27703;51.980;5.848;2022-07-04T07:44:16;18.60;96.10
42019;DHT22;27703;51.980;5.848;2022-07-04T07:46:41;18.70;96.00
42019;DHT22;27703;51.980;5.848;2022-07-04T07:49:07;18.80;96.10
42019;DHT22;27703;51.980;5.848;2022-07-04T07:51:32;18.90;96.10
42019;DHT22;27703;51.980;5.848;2022-07-04T07:53:58;18.90;96.10
42019;DHT22;27703;51.980;5.848;2022-07-04T07:56:24;18.90;96.20
42019;DHT22;27703;51.980;5.848;2022-07-04T07:58:50;18.80;96.30
42019;DHT22;27703;51.980;5.848;2022-07-04T08:01:16;18.90;96.50
42019;DHT22;27703;51.980;5.848;2022-07-04T08:03:42;19.10;96.40
42019;DHT22;27703;51.980;5.848;2022-07-04T08:06:26;19.30;96.20
42019;DHT22;27703;51.980;5.848;2022-07-04T08:08:51;19.50;96.00
42019;DHT22;27703;51.980;5.848;2022-07-04T08:11:17;19.50;96.00
42019;DHT22;27703;51.980;5.848;2022-07-04T08:13:43;19.60;96.10
42019;DHT22;27703;51.980;5.848;2022-07-04T08:16:09;19.60;96.00
42019;DHT22;27703;51.980;5.848;2022-07-04T08:18:35;19.50;96.00
42019;DHT22;27703;51.980;5.848;2022-07-04T08:21:01;19.40;96.00
42019;DHT22;27703;51.980;5.848;2022-07-04T08:23:29;19.30;96.10
42019;DHT22;27703;51.980;5.848;2022-07-04T08:25:54;19.30;96.20
42019;DHT22;27703;51.980;5.848;2022-07-04T08:28:20;19.30;96.40
42019;DHT22;27703;51.980;5.848;2022-07-04T08:30:46;19.20;96.30
42019;DHT22;27703;51.980;5.848;2022-07-04T08:33:11;19.40;96.40
42019;DHT22;27703;51.980;5.848;2022-07-04T08:35:37;19.40;96.30
42019;DHT22;27703;51.980;5.848;2022-07-04T08:38:02;19.50;96.20
42019;DHT22;27703;51.980;5.848;2022-07-04T08:40:30;19.50;96.10
42019;DHT22;27703;51.980;5.848;2022-07-04T08:42:56;19.60;96.20
42019;DHT22;27703;51.980;5.848;2022-07-04T08:45:26;19.60;96.10
42019;DHT22;27703;51.980;5.848;2022-07-04T08:47:57;19.60;96.10
42019;DHT22;27703;51.980;5.848;2022-07-04T08:50:43;19.70;96.10
42019;DHT22;27703;51.980;5.848;2022-07-04T08:53:15;19.80;96.10
42019;DHT22;27703;51.980;5.848;2022-07-04T08:55:42;19.80;96.10
42019;DHT22;27703;51.980;5.848;2022-07-04T08:58:27;19.80;96.10
42019;DHT22;27703;51.980;5.848;2022-07-04T09:01:01;19.90;96.10
42019;DHT22;27703;51.980;5.848;2022-07-04T09:03:28;19.90;96.00
42019;DHT22;27703;51.980;5.848;2022-07-04T09:05:54;19.90;96.00
42019;DHT22;27703;51.980;5.848;2022-07-04T09:08:20;19.90;96.00
42019;DHT22;27703;51.980;5.848;2022-07-04T09:10:47;19.90;95.90
42019;DHT22;27703;51.980;5.848;2022-07-04T09:13:13;20.10;95.70
42019;DHT22;27703;51.980;5.848;2022-07-04T09:15:47;20.40;95.60
42019;DHT22;27703;51.980;5.848;2022-07-04T09:18:24;20.60;95.20
42019;DHT22;27703;51.980;5.848;2022-07-04T09:20:51;20.80;94.70
42019;DHT22;27703;51.980;5.848;2022-07-04T09:23:22;21.00;94.70
42019;DHT22;27703;51.980;5.848;2022-07-04T09:26:15;21.10;94.50
42019;DHT22;27703;51.980;5.848;2022-07-04T09:28:55;20.90;94.40
42019;DHT22;27703;51.980;5.848;2022-07-04T09:31:26;20.70;94.60
42019;DHT22;27703;51.980;5.848;2022-07-04T09:34:02;20.50;94.90
42019;DHT22;27703;51.980;5.848;2022-07-04T09:36:39;20.30;95.10
42019;DHT22;27703;51.980;5.848;2022-07-04T09:41:50;20.20;95.30
42019;DHT22;27703;51.980;5.848;2022-07-04T09:44:17;20.30;95.10
42019;DHT22;27703;51.980;5.848;2022-07-04T09:46:42;20.50;94.70
42019;DHT22;27703;51.980;5.848;2022-07-04T09:49:10;20.70;94.60
42019;DHT22;27703;51.980;5.848;2022-07-04T09:51:39;20.90;94.30
42019;DHT22;27703;51.980;5.848;2022-07-04T09:56:42;21.10;93.80
42019;DHT22;27703;51.980;5.848;2022-07-04T09:59:08;21.30;93.70
42019;DHT22;27703;51.980;5.848;2022-07-04T10:01:33;21.50;93.20
42019;DHT22;27703;51.980;5.848;2022-07-04T10:03:59;21.60;93.00
42019;DHT22;27703;51.980;5.848;2022-07-04T10:06:25;21.70;92.80
42019;DHT22;27703;51.980;5.848;2022-07-04T10:08:51;21.90;92.50
42019;DHT22;27703;51.980;5.848;2022-07-04T10:11:17;22.00;92.00
42019;DHT22;27703;51.980;5.848;2022-07-04T10:13:44;22.10;91.50
42019;DHT22;27703;51.980;5.848;2022-07-04T10:16:09;22.30;91.10
42019;DHT22;27703;51.980;5.848;2022-07-04T10:18:36;22.40;91.00
42019;DHT22;27703;51.980;5.848;2022-07-04T10:21:02;22.60;90.80
42019;DHT22;27703;51.980;5.848;2022-07-04T10:23:27;22.80;90.30
42019;DHT22;27703;51.980;5.848;2022-07-04T10:25:57;22.90;89.70
42019;DHT22;27703;51.980;5.848;2022-07-04T10:28:23;22.90;89.20
42019;DHT22;27703;51.980;5.848;2022-07-04T10:30:51;22.70;89.10
42019;DHT22;27703;51.980;5.848;2022-07-04T10:33:25;22.50;89.40
42019;DHT22;27703;51.980;5.848;2022-07-04T10:35:54;22.50;89.40
42019;DHT22;27703;51.980;5.848;2022-07-04T10:38:30;22.30;89.40
42019;DHT22;27703;51.980;5.848;2022-07-04T10:41:07;22.20;88.80
42019;DHT22;27703;51.980;5.848;2022-07-04T10:49:01;21.60;90.10
42019;DHT22;27703;51.980;5.848;2022-07-04T10:54:29;21.50;90.50
42019;DHT22;27703;51.980;5.848;2022-07-04T10:59:40;21.70;90.20
42019;DHT22;27703;51.980;5.848;2022-07-04T11:04:56;21.80;90.10
42019;DHT22;27703;51.980;5.848;2022-07-04T11:18:11;22.30;89.50
42019;DHT22;27703;51.980;5.848;2022-07-04T11:20:42;22.60;88.80
42019;DHT22;27703;51.980;5.848;2022-07-04T11:23:14;22.80;88.20
42019;DHT22;27703;51.980;5.848;2022-07-04T11:25:43;23.10;87.60
42019;DHT22;27703;51.980;5.848;2022-07-04T11:28:28;23.20;87.20
42019;DHT22;27703;51.980;5.848;2022-07-04T11:31:00;23.60;86.50
42019;DHT22;27703;51.980;5.848;2022-07-04T11:33:28;23.80;85.20
42019;DHT22;27703;51.980;5.848;2022-07-04T11:36:24;23.70;85.20
42019;DHT22;27703;51.980;5.848;2022-07-04T11:39:02;23.50;85.00
42019;DHT22;27703;51.980;5.848;2022-07-04T11:41:38;23.30;85.20
42019;DHT22;27703;51.980;5.848;2022-07-04T11:44:27;23.10;85.50
42019;DHT22;27703;51.980;5.848;2022-07-04T11:47:20;23.00;86.00
42019;DHT22;27703;51.980;5.848;2022-07-04T11:49:56;23.10;85.80
42019;DHT22;27703;51.980;5.848;2022-07-04T11:52:24;23.20;85.50
42019;DHT22;27703;51.980;5.848;2022-07-04T11:54:50;23.40;84.30
42019;DHT22;27703;51.980;5.848;2022-07-04T11:57:28;23.70;84.30
42019;DHT22;27703;51.980;5.848;2022-07-04T12:00:03;24.00;84.10
42019;DHT22;27703;51.980;5.848;2022-07-04T12:02:30;24.10;83.30
42019;DHT22;27703;51.980;5.848;2022-07-04T12:04:56;24.10;83.60
42019;DHT22;27703;51.980;5.848;2022-07-04T12:07:24;24.10;83.30
42019;DHT22;27703;51.980;5.848;2022-07-04T12:09:51;24.20;83.20
42019;DHT22;27703;51.980;5.848;2022-07-04T12:12:18;24.30;83.20
42019;DHT22;27703;51.980;5.848;2022-07-04T12:15:06;24.30;82.30
42019;DHT22;27703;51.980;5.848;2022-07-04T12:17:34;24.20;81.60
42019;DHT22;27703;51.980;5.848;2022-07-04T12:20:12;24.30;81.80
42019;DHT22;27703;51.980;5.848;2022-07-04T12:22:43;24.40;81.50
42019;DHT22;27703;51.980;5.848;2022-07-04T12:25:24;24.60;80.80
42019;DHT22;27703;51.980;5.848;2022-07-04T12:28:02;24.70;79.80
42019;DHT22;27703;51.980;5.848;2022-07-04T12:30:30;24.80;79.30
42019;DHT22;27703;51.980;5.848;2022-07-04T12:33:00;24.90;79.40
42019;DHT22;27703;51.980;5.848;2022-07-04T12:35:38;25.00;79.20
42019;DHT22;27703;51.980;5.848;2022-07-04T12:40:31;25.10;77.80
42019;DHT22;27703;51.980;5.848;2022-07-04T12:42:57;25.10;77.30
42019;DHT22;27703;51.980;5.848;2022-07-04T12:45:23;25.20;75.90
42019;DHT22;27703;51.980;5.848;2022-07-04T12:47:49;25.20;75.70
42019;DHT22;27703;51.980;5.848;2022-07-04T12:50:15;25.30;75.50
42019;DHT22;27703;51.980;5.848;2022-07-04T12:52:40;25.40;75.60
42019;DHT22;27703;51.980;5.848;2022-07-04T12:55:09;25.40;74.90
42019;DHT22;27703;51.980;5.848;2022-07-04T12:57:37;25.40;73.90
42019;DHT22;27703;51.980;5.848;2022-07-04T13:00:03;25.50;73.90
42019;DHT22;27703;51.980;5.848;2022-07-04T13:02:29;25.50;73.10
42019;DHT22;27703;51.980;5.848;2022-07-04T13:04:55;25.50;73.10
42019;DHT22;27703;51.980;5.848;2022-07-04T13:07:21;25.50;73.50
42019;DHT22;27703;51.980;5.848;2022-07-04T13:09:50;25.70;73.20
42019;DHT22;27703;51.980;5.848;2022-07-04T13:12:15;25.80;72.90
42019;DHT22;27703;51.980;5.848;2022-07-04T13:14:52;25.90;72.30
42019;DHT22;27703;51.980;5.848;2022-07-04T13:17:18;25.90;70.80
42019;DHT22;27703;51.980;5.848;2022-07-04T13:19:44;25.70;70.70
42019;DHT22;27703;51.980;5.848;2022-07-04T13:22:09;25.50;71.50
42019;DHT22;27703;51.980;5.848;2022-07-04T13:24:35;25.60;71.60
42019;DHT22;27703;51.980;5.848;2022-07-04T13:27:01;25.60;69.80
42019;DHT22;27703;51.980;5.848;2022-07-04T13:29:26;25.50;70.10
42019;DHT22;27703;51.980;5.848;2022-07-04T13:31:52;25.50;70.60
42019;DHT22;27703;51.980;5.848;2022-07-04T13:34:17;25.40;70.50
42019;DHT22;27703;51.980;5.848;2022-07-04T13:36:44;25.20;71.20
42019;DHT22;27703;51.980;5.848;2022-07-04T13:39:10;25.40;71.00
42019;DHT22;27703;51.980;5.848;2022-07-04T13:41:36;25.60;70.50
42019;DHT22;27703;51.980;5.848;2022-07-04T13:44:03;25.70;70.30
42019;DHT22;27703;51.980;5.848;2022-07-04T13:46:29;25.80;70.10
42019;DHT22;27703;51.980;5.848;2022-07-04T13:48:55;25.70;69.80
42019;DHT22;27703;51.980;5.848;2022-07-04T13:51:21;25.80;69.80
42019;DHT22;27703;51.980;5.848;2022-07-04T13:53:46;26.00;69.20
42019;DHT22;27703;51.980;5.848;2022-07-04T13:56:12;26.00;68.10
42019;DHT22;27703;51.980;5.848;2022-07-04T13:58:43;26.00;67.50
42019;DHT22;27703;51.980;5.848;2022-07-04T14:01:09;26.00;67.80
42019;DHT22;27703;51.980;5.848;2022-07-04T14:03:34;26.00;68.00
42019;DHT22;27703;51.980;5.848;2022-07-04T14:06:00;26.10;67.60
42019;DHT22;27703;51.980;5.848;2022-07-04T14:08:26;26.20;68.10
42019;DHT22;27703;51.980;5.848;2022-07-04T14:10:51;26.40;68.20
42019;DHT22;27703;51.980;5.848;2022-07-04T14:13:17;26.70;67.90
42019;DHT22;27703;51.980;5.848;2022-07-04T14:15:43;26.70;67.10
42019;DHT22;27703;51.980;5.848;2022-07-04T14:18:08;26.70;66.90
42019;DHT22;27703;51.980;5.848;2022-07-04T14:20:39;26.70;65.80
42019;DHT22;27703;51.980;5.848;2022-07-04T14:23:05;26.60;67.00
42019;DHT22;27703;51.980;5.848;2022-07-04T14:25:30;26.70;66.40
42019;DHT22;27703;51.980;5.848;2022-07-04T14:27:56;26.80;65.20
42019;DHT22;27703;51.980;5.848;2022-07-04T14:30:21;26.80;65.20
42019;DHT22;27703;51.980;5.848;2022-07-04T14:32:47;26.80;65.10
42019;DHT22;27703;51.980;5.848;2022-07-04T14:35:12;26.80;65.00
42019;DHT22;27703;51.980;5.848;2022-07-04T14:37:38;26.70;65.20
42019;DHT22;27703;51.980;5.848;2022-07-04T14:40:04;26.40;65.80
42019;DHT22;27703;51.980;5.848;2022-07-04T14:42:30;26.30;66.40
42019;DHT22;27703;51.980;5.848;2022-07-04T14:44:56;26.40;66.50
42019;DHT22;27703;51.980;5.848;2022-07-04T14:47:21;26.70;65.70
42019;DHT22;27703;51.980;5.848;2022-07-04T14:49:47;26.80;65.30
42019;DHT22;27703;51.980;5.848;2022-07-04T14:52:12;26.80;64.80
42019;DHT22;27703;51.980;5.848;2022-07-04T14:54:38;26.70;64.50
42019;DHT22;27703;51.980;5.848;2022-07-04T14:57:04;26.70;64.90
42019;DHT22;27703;51.980;5.848;2022-07-04T14:59:29;26.60;64.30
42019;DHT22;27703;51.980;5.848;2022-07-04T15:01:56;26.40;65.10
42019;DHT22;27703;51.980;5.848;2022-07-04T15:04:22;26.40;65.00
42019;DHT22;27703;51.980;5.848;2022-07-04T15:06:47;26.40;64.50
42019;DHT22;27703;51.980;5.848;2022-07-04T15:09:13;26.50;64.60
42019;DHT22;27703;51.980;5.848;2022-07-04T15:11:39;26.70;64.60
42019;DHT22;27703;51.980;5.848;2022-07-04T15:14:05;26.70;63.70
42019;DHT22;27703;51.980;5.848;2022-07-04T15:16:30;26.60;64.00
42019;DHT22;27703;51.980;5.848;2022-07-04T15:18:56;26.50;64.00
42019;DHT22;27703;51.980;5.848;2022-07-04T15:21:21;26.40;63.90
42019;DHT22;27703;51.980;5.848;2022-07-04T15:24:06;26.40;63.90
42019;DHT22;27703;51.980;5.848;2022-07-04T15:26:41;26.50;64.60
42019;DHT22;27703;51.980;5.848;2022-07-04T15:29:07;26.60;64.40
42019;DHT22;27703;51.980;5.848;2022-07-04T15:31:32;26.50;65.10
42019;DHT22;27703;51.980;5.848;2022-07-04T15:33:58;26.30;65.10
42019;DHT22;27703;51.980;5.848;2022-07-04T15:36:24;26.40;65.10
42019;DHT22;27703;51.980;5.848;2022-07-04T15:38:49;26.40;65.30
42019;DHT22;27703;51.980;5.848;2022-07-04T15:41:15;26.40;64.90
42019;DHT22;27703;51.980;5.848;2022-07-04T15:43:42;26.40;64.80
42019;DHT22;27703;51.980;5.848;2022-07-04T15:46:08;26.60;65.00
42019;DHT22;27703;51.980;5.848;2022-07-04T15:48:33;26.70;64.70
42019;DHT22;27703;51.980;5.848;2022-07-04T15:50:59;26.80;65.00
42019;DHT22;27703;51.980;5.848;2022-07-04T15:53:25;26.70;65.20
42019;DHT22;27703;51.980;5.848;2022-07-04T15:55:50;26.40;65.30
42019;DHT22;27703;51.980;5.848;2022-07-04T15:58:16;26.20;65.30
42019;DHT22;27703;51.980;5.848;2022-07-04T16:00:41;25.80;65.80
42019;DHT22;27703;51.980;5.848;2022-07-04T16:03:07;25.90;66.00